sensor_id;sensor_type;location;lat;lon;timestamp;temperature;humidity
74081;SHT31;62438;52.228;6.864;2023-04-06T00:01:55;0.93;78.04
74081;SHT31;62438;52.228;6.864;2023-04-06T00:03:55;0.88;78.40
74081;SHT31;62438;52.228;6.864;2023-04-06T00:05:56;0.87;78.39
74081;SHT31;62438;52.228;6.864;2023-04-06T00:07:59;0.89;78.74
74081;SHT31;62438;52.228;6.864;2023-04-06T00:09:59;0.89;80.74
74081;SHT31;62438;52.228;6.864;2023-04-06T00:12:00;0.81;80.41
74081;SHT31;62438;52.228;6.864;2023-04-06T00:14:00;0.77;81.53
74081;SHT31;62438;52.228;6.864;2023-04-06T00:16:01;0.71;81.89
74081;SHT31;62438;52.228;6.864;2023-04-06T00:18:02;0.64;80.61
74081;SHT31;62438;52.228;6.864;2023-04-06T00:20:03;0.58;82.06
74081;SHT31;62438;52.228;6.864;2023-04-06T00:22:04;0.58;83.06
74081;SHT31;62438;52.228;6.864;2023-04-06T00:24:05;0.51;81.78
74081;SHT31;62438;52.228;6.864;2023-04-06T00:26:05;0.48;82.50
74081;SHT31;62438;52.228;6.864;2023-04-06T00:28:06;0.43;83.85
74081;SHT31;62438;52.228;6.864;2023-04-06T00:30:07;0.40;82.65
74081;SHT31;62438;52.228;6.864;2023-04-06T00:32:08;0.34;83.00
74081;SHT31;62438;52.228;6.864;2023-04-06T00:34:09;0.36;82.84
74081;SHT31;62438;52.228;6.864;2023-04-06T00:36:10;0.29;82.36
74081;SHT31;62438;52.228;6.864;2023-04-06T00:38:11;0.24;83.50
74081;SHT31;62438;52.228;6.864;2023-04-06T00:40:12;0.24;84.16
74081;SHT31;62438;52.228;6.864;2023-04-06T00:42:13;0.23;83.32
74081;SHT31;62438;52.228;6.864;2023-04-06T00:44:14;0.19;83.06
74081;SHT31;62438;52.228;6.864;2023-04-06T00:46:14;0.13;82.70
74081;SHT31;62438;52.228;6.864;2023-04-06T00:48:16;0.09;83.35
74081;SHT31;62438;52.228;6.864;2023-04-06T00:50:16;0.07;83.86
74081;SHT31;62438;52.228;6.864;2023-04-06T00:52:17;0.14;83.94
74081;SHT31;62438;52.228;6.864;2023-04-06T00:54:18;0.11;83.84
74081;SHT31;62438;52.228;6.864;2023-04-06T00:56:18;0.07;83.47
74081;SHT31;62438;52.228;6.864;2023-04-06T00:58:18;0.06;83.21
74081;SHT31;62438;52.228;6.864;2023-04-06T01:00:19;0.05;83.50
74081;SHT31;62438;52.228;6.864;2023-04-06T01:02:20;0.06;84.22
74081;SHT31;62438;52.228;6.864;2023-04-06T01:04:20;0.09;84.02
74081;SHT31;62438;52.228;6.864;2023-04-06T01:06:22;0.05;83.75
74081;SHT31;62438;52.228;6.864;2023-04-06T01:08:23;0.06;83.39
74081;SHT31;62438;52.228;6.864;2023-04-06T01:10:28;0.06;83.64
74081;SHT31;62438;52.228;6.864;2023-04-06T01:12:29;0.02;83.87
74081;SHT31;62438;52.228;6.864;2023-04-06T01:14:29;0.00;84.03
74081;SHT31;62438;52.228;6.864;2023-04-06T01:16:30;-0.04;84.41
74081;SHT31;62438;52.228;6.864;2023-04-06T01:18:30;-0.05;85.34
74081;SHT31;62438;52.228;6.864;2023-04-06T01:20:31;-0.07;84.14
74081;SHT31;62438;52.228;6.864;2023-04-06T01:22:31;-0.12;83.85
74081;SHT31;62438;52.228;6.864;2023-04-06T01:24:32;-0.14;84.95
74081;SHT31;62438;52.228;6.864;2023-04-06T01:26:33;-0.17;84.89
74081;SHT31;62438;52.228;6.864;2023-04-06T01:28:34;-0.26;84.57
74081;SHT31;62438;52.228;6.864;2023-04-06T01:30:34;-0.32;84.89
74081;SHT31;62438;52.228;6.864;2023-04-06T01:32:35;-0.33;85.57
74081;SHT31;62438;52.228;6.864;2023-04-06T01:34:35;-0.38;86.18
74081;SHT31;62438;52.228;6.864;2023-04-06T01:36:36;-0.36;85.45
74081;SHT31;62438;52.228;6.864;2023-04-06T01:38:36;-0.39;85.13
74081;SHT31;62438;52.228;6.864;2023-04-06T01:40:37;-0.42;85.89
74081;SHT31;62438;52.228;6.864;2023-04-06T01:42:37;-0.45;85.49
74081;SHT31;62438;52.228;6.864;2023-04-06T01:44:40;-0.49;85.12
74081;SHT31;62438;52.228;6.864;2023-04-06T01:46:40;-0.50;85.58
74081;SHT31;62438;52.228;6.864;2023-04-06T01:48:42;-0.45;86.37
74081;SHT31;62438;52.228;6.864;2023-04-06T01:50:42;-0.53;86.02
74081;SHT31;62438;52.228;6.864;2023-04-06T01:52:43;-0.45;86.96
74081;SHT31;62438;52.228;6.864;2023-04-06T01:54:43;-0.46;86.24
74081;SHT31;62438;52.228;6.864;2023-04-06T01:56:43;-0.48;86.02
74081;SHT31;62438;52.228;6.864;2023-04-06T01:58:44;-0.52;86.70
74081;SHT31;62438;52.228;6.864;2023-04-06T02:15:28;-0.52;86.24
74081;SHT31;62438;52.228;6.864;2023-04-06T02:17:29;-0.49;86.82
74081;SHT31;62438;52.228;6.864;2023-04-06T02:19:30;-0.59;86.47
74081;SHT31;62438;52.228;6.864;2023-04-06T02:21:30;-0.59;86.28
74081;SHT31;62438;52.228;6.864;2023-04-06T02:23:31;-0.70;86.01
74081;SHT31;62438;52.228;6.864;2023-04-06T02:25:31;-0.72;86.01
74081;SHT31;62438;52.228;6.864;2023-04-06T02:27:32;-0.77;86.05
74081;SHT31;62438;52.228;6.864;2023-04-06T02:29:32;-0.77;86.19
74081;SHT31;62438;52.228;6.864;2023-04-06T02:31:33;-0.77;86.69
74081;SHT31;62438;52.228;6.864;2023-04-06T02:33:33;-0.80;86.84
74081;SHT31;62438;52.228;6.864;2023-04-06T02:35:34;-0.83;86.77
74081;SHT31;62438;52.228;6.864;2023-04-06T02:37:34;-0.81;86.90
74081;SHT31;62438;52.228;6.864;2023-04-06T02:39:34;-0.84;86.96
74081;SHT31;62438;52.228;6.864;2023-04-06T02:41:35;-0.89;87.52
74081;SHT31;62438;52.228;6.864;2023-04-06T02:43:35;-0.91;87.08
74081;SHT31;62438;52.228;6.864;2023-04-06T02:45:36;-0.96;87.45
74081;SHT31;62438;52.228;6.864;2023-04-06T02:47:36;-0.89;87.29
74081;SHT31;62438;52.228;6.864;2023-04-06T02:49:37;-0.90;87.71
74081;SHT31;62438;52.228;6.864;2023-04-06T02:51:37;-0.90;87.91
74081;SHT31;62438;52.228;6.864;2023-04-06T02:53:37;-0.94;87.82
74081;SHT31;62438;52.228;6.864;2023-04-06T02:55:38;-0.94;87.88
74081;SHT31;62438;52.228;6.864;2023-04-06T02:57:39;-0.97;87.63
74081;SHT31;62438;52.228;6.864;2023-04-06T02:59:39;-1.01;88.10
74081;SHT31;62438;52.228;6.864;2023-04-06T03:01:39;-0.96;88.58
74081;SHT31;62438;52.228;6.864;2023-04-06T03:03:40;-0.91;88.14
74081;SHT31;62438;52.228;6.864;2023-04-06T03:05:40;-1.00;88.63
74081;SHT31;62438;52.228;6.864;2023-04-06T03:07:41;-1.01;88.98
74081;SHT31;62438;52.228;6.864;2023-04-06T03:09:41;-1.03;89.37
74081;SHT31;62438;52.228;6.864;2023-04-06T03:11:42;-1.04;88.62
74081;SHT31;62438;52.228;6.864;2023-04-06T03:13:42;-1.05;89.21
74081;SHT31;62438;52.228;6.864;2023-04-06T03:15:43;-1.08;90.08
74081;SHT31;62438;52.228;6.864;2023-04-06T03:17:43;-1.08;90.25
74081;SHT31;62438;52.228;6.864;2023-04-06T03:19:43;-1.11;90.14
74081;SHT31;62438;52.228;6.864;2023-04-06T03:21:44;-1.15;89.69
74081;SHT31;62438;52.228;6.864;2023-04-06T03:23:45;-1.14;89.60
74081;SHT31;62438;52.228;6.864;2023-04-06T03:25:45;-1.17;89.74
74081;SHT31;62438;52.228;6.864;2023-04-06T03:27:46;-1.22;88.95
74081;SHT31;62438;52.228;6.864;2023-04-06T03:29:46;-1.24;89.94
74081;SHT31;62438;52.228;6.864;2023-04-06T03:31:46;-1.22;90.42
74081;SHT31;62438;52.228;6.864;2023-04-06T03:33:47;-1.24;89.58
74081;SHT31;62438;52.228;6.864;2023-04-06T03:35:47;-1.24;89.88
74081;SHT31;62438;52.228;6.864;2023-04-06T03:37:48;-1.22;90.16
74081;SHT31;62438;52.228;6.864;2023-04-06T03:39:48;-1.25;91.20
74081;SHT31;62438;52.228;6.864;2023-04-06T03:41:49;-1.24;91.21
74081;SHT31;62438;52.228;6.864;2023-04-06T03:43:49;-1.27;91.37
74081;SHT31;62438;52.228;6.864;2023-04-06T03:45:50;-1.24;91.20
74081;SHT31;62438;52.228;6.864;2023-04-06T03:47:50;-1.32;90.93
74081;SHT31;62438;52.228;6.864;2023-04-06T03:49:50;-1.32;91.03
74081;SHT31;62438;52.228;6.864;2023-04-06T03:51:52;-1.37;91.27
74081;SHT31;62438;52.228;6.864;2023-04-06T03:53:52;-1.31;91.23
74081;SHT31;62438;52.228;6.864;2023-04-06T03:55:53;-1.35;91.54
74081;SHT31;62438;52.228;6.864;2023-04-06T03:57:53;-1.32;91.75
74081;SHT31;62438;52.228;6.864;2023-04-06T03:59:53;-1.32;90.83
74081;SHT31;62438;52.228;6.864;2023-04-06T04:01:54;-1.34;91.50
74081;SHT31;62438;52.228;6.864;2023-04-06T04:03:54;-1.38;90.59
74081;SHT31;62438;52.228;6.864;2023-04-06T04:05:55;-1.39;90.47
74081;SHT31;62438;52.228;6.864;2023-04-06T04:07:56;-1.34;91.31
74081;SHT31;62438;52.228;6.864;2023-04-06T04:09:56;-1.37;91.15
74081;SHT31;62438;52.228;6.864;2023-04-06T04:11:56;-1.37;91.50
74081;SHT31;62438;52.228;6.864;2023-04-06T04:13:57;-1.41;90.78
74081;SHT31;62438;52.228;6.864;2023-04-06T04:15:57;-1.42;90.43
74081;SHT31;62438;52.228;6.864;2023-04-06T04:17:58;-1.42;91.13
74081;SHT31;62438;52.228;6.864;2023-04-06T04:19:58;-1.41;90.94
74081;SHT31;62438;52.228;6.864;2023-04-06T04:21:59;-1.39;90.73
74081;SHT31;62438;52.228;6.864;2023-04-06T04:23:59;-1.45;90.96
74081;SHT31;62438;52.228;6.864;2023-04-06T04:25:59;-1.48;91.57
74081;SHT31;62438;52.228;6.864;2023-04-06T04:28:00;-1.49;91.72
74081;SHT31;62438;52.228;6.864;2023-04-06T04:30:01;-1.42;91.46
74081;SHT31;62438;52.228;6.864;2023-04-06T04:32:01;-1.45;91.47
74081;SHT31;62438;52.228;6.864;2023-04-06T04:34:02;-1.34;90.94
74081;SHT31;62438;52.228;6.864;2023-04-06T04:36:02;-1.24;90.55
74081;SHT31;62438;52.228;6.864;2023-04-06T04:38:03;-0.73;86.95
74081;SHT31;62438;52.228;6.864;2023-04-06T04:40:04;-0.43;85.84
74081;SHT31;62438;52.228;6.864;2023-04-06T04:42:05;-0.48;86.08
74081;SHT31;62438;52.228;6.864;2023-04-06T04:44:05;-0.48;85.80
74081;SHT31;62438;52.228;6.864;2023-04-06T04:46:06;-0.45;85.42
74081;SHT31;62438;52.228;6.864;2023-04-06T04:48:07;-0.58;85.55
74081;SHT31;62438;52.228;6.864;2023-04-06T04:50:09;-0.56;85.84
74081;SHT31;62438;52.228;6.864;2023-04-06T04:52:09;-0.63;86.21
74081;SHT31;62438;52.228;6.864;2023-04-06T04:54:10;-0.69;86.15
74081;SHT31;62438;52.228;6.864;2023-04-06T04:56:10;-0.79;86.82
74081;SHT31;62438;52.228;6.864;2023-04-06T04:58:11;-0.90;87.28
74081;SHT31;62438;52.228;6.864;2023-04-06T05:00:15;-0.93;88.00
74081;SHT31;62438;52.228;6.864;2023-04-06T05:02:37;-0.94;88.23
74081;SHT31;62438;52.228;6.864;2023-04-06T05:04:43;-0.96;88.10
74081;SHT31;62438;52.228;6.864;2023-04-06T05:06:43;-0.94;88.25
74081;SHT31;62438;52.228;6.864;2023-04-06T05:08:44;-0.98;88.04
74081;SHT31;62438;52.228;6.864;2023-04-06T05:10:45;-0.91;87.41
74081;SHT31;62438;52.228;6.864;2023-04-06T05:12:47;-0.93;87.75
74081;SHT31;62438;52.228;6.864;2023-04-06T05:14:47;-0.91;87.61
74081;SHT31;62438;52.228;6.864;2023-04-06T05:16:48;-0.89;87.45
74081;SHT31;62438;52.228;6.864;2023-04-06T05:18:48;-0.87;87.49
74081;SHT31;62438;52.228;6.864;2023-04-06T05:20:49;-0.83;87.57
74081;SHT31;62438;52.228;6.864;2023-04-06T05:22:51;-0.79;88.03
74081;SHT31;62438;52.228;6.864;2023-04-06T05:24:52;-0.69;86.91
74081;SHT31;62438;52.228;6.864;2023-04-06T05:26:52;-0.65;86.93
74081;SHT31;62438;52.228;6.864;2023-04-06T05:28:53;-0.40;85.64
74081;SHT31;62438;52.228;6.864;2023-04-06T05:30:54;-0.07;84.48
74081;SHT31;62438;52.228;6.864;2023-04-06T05:32:55;0.27;82.71
74081;SHT31;62438;52.228;6.864;2023-04-06T05:34:55;0.31;82.65
74081;SHT31;62438;52.228;6.864;2023-04-06T05:36:56;0.65;80.79
74081;SHT31;62438;52.228;6.864;2023-04-06T05:38:58;0.72;80.79
74081;SHT31;62438;52.228;6.864;2023-04-06T05:40:58;0.95;79.35
74081;SHT31;62438;52.228;6.864;2023-04-06T05:42:59;1.13;78.21
74081;SHT31;62438;52.228;6.864;2023-04-06T05:45:00;1.29;77.81
74081;SHT31;62438;52.228;6.864;2023-04-06T05:47:01;1.32;77.22
74081;SHT31;62438;52.228;6.864;2023-04-06T05:49:01;1.42;77.04
74081;SHT31;62438;52.228;6.864;2023-04-06T05:51:02;1.53;76.40
74081;SHT31;62438;52.228;6.864;2023-04-06T05:53:06;1.53;76.63
74081;SHT31;62438;52.228;6.864;2023-04-06T05:55:06;1.58;76.50
74081;SHT31;62438;52.228;6.864;2023-04-06T05:57:07;1.64;75.87
74081;SHT31;62438;52.228;6.864;2023-04-06T05:59:07;1.74;75.65
74081;SHT31;62438;52.228;6.864;2023-04-06T06:01:08;1.78;75.23
74081;SHT31;62438;52.228;6.864;2023-04-06T06:03:09;1.91;74.95
74081;SHT31;62438;52.228;6.864;2023-04-06T06:05:10;1.99;74.71
74081;SHT31;62438;52.228;6.864;2023-04-06T06:07:10;2.04;74.27
74081;SHT31;62438;52.228;6.864;2023-04-06T06:09:11;2.08;74.17
74081;SHT31;62438;52.228;6.864;2023-04-06T06:11:11;2.15;75.04
74081;SHT31;62438;52.228;6.864;2023-04-06T06:13:12;2.21;73.65
74081;SHT31;62438;52.228;6.864;2023-04-06T06:15:12;2.29;73.92
74081;SHT31;62438;52.228;6.864;2023-04-06T06:17:12;2.32;74.88
74081;SHT31;62438;52.228;6.864;2023-04-06T06:19:15;2.40;74.30
74081;SHT31;62438;52.228;6.864;2023-04-06T06:21:15;2.49;73.99
74081;SHT31;62438;52.228;6.864;2023-04-06T06:23:18;2.60;73.15
74081;SHT31;62438;52.228;6.864;2023-04-06T06:25:19;2.64;72.76
74081;SHT31;62438;52.228;6.864;2023-04-06T06:27:19;2.72;72.54
74081;SHT31;62438;52.228;6.864;2023-04-06T06:29:20;2.83;72.54
74081;SHT31;62438;52.228;6.864;2023-04-06T06:31:20;2.94;71.22
74081;SHT31;62438;52.228;6.864;2023-04-06T06:33:22;3.00;71.93
74081;SHT31;62438;52.228;6.864;2023-04-06T06:35:23;3.18;71.78
74081;SHT31;62438;52.228;6.864;2023-04-06T06:37:23;3.32;70.85
74081;SHT31;62438;52.228;6.864;2023-04-06T06:39:24;3.49;70.17
74081;SHT31;62438;52.228;6.864;2023-04-06T06:41:25;3.60;70.52
74081;SHT31;62438;52.228;6.864;2023-04-06T06:43:26;3.73;69.11
74081;SHT31;62438;52.228;6.864;2023-04-06T06:45:26;3.83;68.95
74081;SHT31;62438;52.228;6.864;2023-04-06T06:47:27;3.97;68.96
74081;SHT31;62438;52.228;6.864;2023-04-06T06:49:27;4.22;67.94
74081;SHT31;62438;52.228;6.864;2023-04-06T06:51:28;4.35;67.16
74081;SHT31;62438;52.228;6.864;2023-04-06T06:53:28;4.53;67.03
74081;SHT31;62438;52.228;6.864;2023-04-06T06:55:29;4.52;66.45
74081;SHT31;62438;52.228;6.864;2023-04-06T06:57:29;4.56;66.03
74081;SHT31;62438;52.228;6.864;2023-04-06T06:59:29;4.79;66.56
74081;SHT31;62438;52.228;6.864;2023-04-06T07:01:31;4.93;66.29
74081;SHT31;62438;52.228;6.864;2023-04-06T07:03:32;5.01;65.28
74081;SHT31;62438;52.228;6.864;2023-04-06T07:05:32;5.11;64.73
74081;SHT31;62438;52.228;6.864;2023-04-06T07:07:33;5.24;64.48
74081;SHT31;62438;52.228;6.864;2023-04-06T07:09:34;5.40;64.25
74081;SHT31;62438;52.228;6.864;2023-04-06T07:11:35;5.58;63.71
74081;SHT31;62438;52.228;6.864;2023-04-06T07:13:35;5.76;63.22
74081;SHT31;62438;52.228;6.864;2023-04-06T07:15:36;5.95;62.01
74081;SHT31;62438;52.228;6.864;2023-04-06T07:17:37;6.11;62.36
74081;SHT31;62438;52.228;6.864;2023-04-06T07:19:37;6.30;61.77
74081;SHT31;62438;52.228;6.864;2023-04-06T07:21:38;6.51;59.67
74081;SHT31;62438;52.228;6.864;2023-04-06T07:23:38;6.65;59.40
74081;SHT31;62438;52.228;6.864;2023-04-06T07:25:39;6.82;59.52
74081;SHT31;62438;52.228;6.864;2023-04-06T07:27:39;6.96;58.16
74081;SHT31;62438;52.228;6.864;2023-04-06T07:29:40;7.30;58.56
74081;SHT31;62438;52.228;6.864;2023-04-06T07:31:40;7.60;57.27
74081;SHT31;62438;52.228;6.864;2023-04-06T07:33:41;7.61;56.97
74081;SHT31;62438;52.228;6.864;2023-04-06T07:35:44;7.64;56.52
74081;SHT31;62438;52.228;6.864;2023-04-06T07:37:45;7.88;55.63
74081;SHT31;62438;52.228;6.864;2023-04-06T07:39:45;7.91;55.30
74081;SHT31;62438;52.228;6.864;2023-04-06T07:41:46;8.28;55.57
74081;SHT31;62438;52.228;6.864;2023-04-06T07:43:47;8.30;54.87
74081;SHT31;62438;52.228;6.864;2023-04-06T07:45:47;7.96;55.80
74081;SHT31;62438;52.228;6.864;2023-04-06T07:47:48;8.17;54.89
74081;SHT31;62438;52.228;6.864;2023-04-06T07:49:48;8.42;54.64
74081;SHT31;62438;52.228;6.864;2023-04-06T07:51:49;8.95;53.51
74081;SHT31;62438;52.228;6.864;2023-04-06T07:53:52;9.22;53.63
74081;SHT31;62438;52.228;6.864;2023-04-06T07:55:53;8.84;53.57
74081;SHT31;62438;52.228;6.864;2023-04-06T07:57:54;9.10;53.65
74081;SHT31;62438;52.228;6.864;2023-04-06T07:59:57;9.10;53.45
74081;SHT31;62438;52.228;6.864;2023-04-06T08:01:57;9.31;52.99
74081;SHT31;62438;52.228;6.864;2023-04-06T08:03:58;9.25;53.64
74081;SHT31;62438;52.228;6.864;2023-04-06T08:05:59;9.43;52.74
74081;SHT31;62438;52.228;6.864;2023-04-06T08:07:59;9.43;52.57
74081;SHT31;62438;52.228;6.864;2023-04-06T08:09:59;9.44;52.08
74081;SHT31;62438;52.228;6.864;2023-04-06T08:12:03;9.62;52.00
74081;SHT31;62438;52.228;6.864;2023-04-06T08:14:03;9.56;51.56
74081;SHT31;62438;52.228;6.864;2023-04-06T08:16:04;9.84;51.65
74081;SHT31;62438;52.228;6.864;2023-04-06T08:18:05;9.87;51.70
74081;SHT31;62438;52.228;6.864;2023-04-06T08:20:06;9.98;50.82
74081;SHT31;62438;52.228;6.864;2023-04-06T08:22:06;10.10;51.03
74081;SHT31;62438;52.228;6.864;2023-04-06T08:24:07;10.25;50.24
74081;SHT31;62438;52.228;6.864;2023-04-06T08:26:07;10.31;49.85
74081;SHT31;62438;52.228;6.864;2023-04-06T08:28:08;10.53;50.60
74081;SHT31;62438;52.228;6.864;2023-04-06T08:30:09;10.88;49.37
74081;SHT31;62438;52.228;6.864;2023-04-06T08:32:10;10.56;49.43
74081;SHT31;62438;52.228;6.864;2023-04-06T08:34:10;10.44;49.60
74081;SHT31;62438;52.228;6.864;2023-04-06T08:36:13;10.86;49.43
74081;SHT31;62438;52.228;6.864;2023-04-06T08:38:13;10.81;48.92
74081;SHT31;62438;52.228;6.864;2023-04-06T08:40:14;11.24;47.65
74081;SHT31;62438;52.228;6.864;2023-04-06T08:42:19;11.62;48.16
74081;SHT31;62438;52.228;6.864;2023-04-06T08:44:19;11.79;46.19
74081;SHT31;62438;52.228;6.864;2023-04-06T08:46:21;12.33;46.61
74081;SHT31;62438;52.228;6.864;2023-04-06T08:48:22;12.44;45.77
74081;SHT31;62438;52.228;6.864;2023-04-06T08:50:24;12.16;44.90
74081;SHT31;62438;52.228;6.864;2023-04-06T08:52:25;12.02;45.21
74081;SHT31;62438;52.228;6.864;2023-04-06T08:54:26;11.99;45.68
74081;SHT31;62438;52.228;6.864;2023-04-06T08:56:28;12.03;45.12
74081;SHT31;62438;52.228;6.864;2023-04-06T08:58:33;12.34;46.19
74081;SHT31;62438;52.228;6.864;2023-04-06T09:00:38;12.15;43.80
74081;SHT31;62438;52.228;6.864;2023-04-06T09:02:39;12.19;44.90
74081;SHT31;62438;52.228;6.864;2023-04-06T09:04:43;13.01;44.46
74081;SHT31;62438;52.228;6.864;2023-04-06T09:06:44;12.98;45.08
74081;SHT31;62438;52.228;6.864;2023-04-06T09:08:45;12.64;44.61
74081;SHT31;62438;52.228;6.864;2023-04-06T09:10:45;12.60;45.85
74081;SHT31;62438;52.228;6.864;2023-04-06T09:12:46;12.13;45.26
74081;SHT31;62438;52.228;6.864;2023-04-06T09:14:46;12.07;46.14
74081;SHT31;62438;52.228;6.864;2023-04-06T09:16:47;11.82;46.52
74081;SHT31;62438;52.228;6.864;2023-04-06T09:18:48;11.88;45.81
74081;SHT31;62438;52.228;6.864;2023-04-06T09:21:00;11.74;46.13
74081;SHT31;62438;52.228;6.864;2023-04-06T09:23:01;11.71;47.16
74081;SHT31;62438;52.228;6.864;2023-04-06T09:25:01;11.65;47.24
74081;SHT31;62438;52.228;6.864;2023-04-06T09:27:02;11.52;46.75
74081;SHT31;62438;52.228;6.864;2023-04-06T09:29:02;11.58;46.09
74081;SHT31;62438;52.228;6.864;2023-04-06T09:31:03;11.64;46.44
74081;SHT31;62438;52.228;6.864;2023-04-06T09:33:04;11.75;45.03
74081;SHT31;62438;52.228;6.864;2023-04-06T09:35:08;11.69;45.78
74081;SHT31;62438;52.228;6.864;2023-04-06T09:37:17;11.95;45.31
74081;SHT31;62438;52.228;6.864;2023-04-06T09:39:21;12.10;45.63
74081;SHT31;62438;52.228;6.864;2023-04-06T09:41:26;11.85;44.46
74081;SHT31;62438;52.228;6.864;2023-04-06T09:43:27;12.34;45.42
74081;SHT31;62438;52.228;6.864;2023-04-06T09:45:29;12.23;43.91
74081;SHT31;62438;52.228;6.864;2023-04-06T09:47:31;12.38;43.92
74081;SHT31;62438;52.228;6.864;2023-04-06T09:49:33;12.47;42.64
74081;SHT31;62438;52.228;6.864;2023-04-06T09:51:53;12.64;43.87
74081;SHT31;62438;52.228;6.864;2023-04-06T09:53:55;12.53;42.86
74081;SHT31;62438;52.228;6.864;2023-04-06T09:56:07;12.40;42.86
74081;SHT31;62438;52.228;6.864;2023-04-06T09:58:16;12.43;42.85
74081;SHT31;62438;52.228;6.864;2023-04-06T10:00:25;12.55;43.72
74081;SHT31;62438;52.228;6.864;2023-04-06T10:07:28;12.94;42.56
74081;SHT31;62438;52.228;6.864;2023-04-06T10:09:29;13.03;41.39
74081;SHT31;62438;52.228;6.864;2023-04-06T10:11:36;13.30;42.66
74081;SHT31;62438;52.228;6.864;2023-04-06T10:13:37;13.16;41.75
74081;SHT31;62438;52.228;6.864;2023-04-06T10:15:41;13.08;40.87
74081;SHT31;62438;52.228;6.864;2023-04-06T10:17:43;13.03;41.10
74081;SHT31;62438;52.228;6.864;2023-04-06T10:19:54;13.18;41.22
74081;SHT31;62438;52.228;6.864;2023-04-06T10:21:57;13.64;42.07
74081;SHT31;62438;52.228;6.864;2023-04-06T10:24:01;13.59;40.96
74081;SHT31;62438;52.228;6.864;2023-04-06T10:26:03;13.67;40.13
74081;SHT31;62438;52.228;6.864;2023-04-06T10:28:08;13.80;40.37
74081;SHT31;62438;52.228;6.864;2023-04-06T10:30:08;14.14;39.45
74081;SHT31;62438;52.228;6.864;2023-04-06T10:32:09;14.52;37.88
74081;SHT31;62438;52.228;6.864;2023-04-06T10:34:09;14.48;37.82
74081;SHT31;62438;52.228;6.864;2023-04-06T10:36:27;14.55;37.35
74081;SHT31;62438;52.228;6.864;2023-04-06T10:38:38;14.55;37.37
74081;SHT31;62438;52.228;6.864;2023-04-06T10:40:40;14.84;37.38
74081;SHT31;62438;52.228;6.864;2023-04-06T10:42:41;14.91;36.64
74081;SHT31;62438;52.228;6.864;2023-04-06T10:44:42;14.98;37.13
74081;SHT31;62438;52.228;6.864;2023-04-06T10:46:51;14.29;37.98
74081;SHT31;62438;52.228;6.864;2023-04-06T10:48:52;14.22;38.66
74081;SHT31;62438;52.228;6.864;2023-04-06T10:50:53;13.88;38.50
74081;SHT31;62438;52.228;6.864;2023-04-06T10:53:01;13.67;38.84
74081;SHT31;62438;52.228;6.864;2023-04-06T10:55:02;14.00;40.35
74081;SHT31;62438;52.228;6.864;2023-04-06T10:57:03;14.42;38.21
74081;SHT31;62438;52.228;6.864;2023-04-06T10:59:03;14.31;37.57
74081;SHT31;62438;52.228;6.864;2023-04-06T11:01:04;14.53;38.33
74081;SHT31;62438;52.228;6.864;2023-04-06T11:03:04;14.66;37.88
74081;SHT31;62438;52.228;6.864;2023-04-06T11:05:05;15.12;39.63
74081;SHT31;62438;52.228;6.864;2023-04-06T11:07:06;15.00;38.16
74081;SHT31;62438;52.228;6.864;2023-04-06T11:09:09;14.59;37.08
74081;SHT31;62438;52.228;6.864;2023-04-06T11:11:10;14.58;38.46
74081;SHT31;62438;52.228;6.864;2023-04-06T11:13:15;14.48;37.75
74081;SHT31;62438;52.228;6.864;2023-04-06T11:15:15;14.60;38.19
74081;SHT31;62438;52.228;6.864;2023-04-06T11:17:16;14.65;36.34
74081;SHT31;62438;52.228;6.864;2023-04-06T11:19:17;15.12;36.29
74081;SHT31;62438;52.228;6.864;2023-04-06T11:21:19;15.24;35.91
74081;SHT31;62438;52.228;6.864;2023-04-06T11:23:26;15.45;35.72
74081;SHT31;62438;52.228;6.864;2023-04-06T11:25:27;15.69;35.75
74081;SHT31;62438;52.228;6.864;2023-04-06T11:27:27;15.68;35.75
74081;SHT31;62438;52.228;6.864;2023-04-06T11:29:31;15.70;36.25
74081;SHT31;62438;52.228;6.864;2023-04-06T11:31:37;15.55;35.79
74081;SHT31;62438;52.228;6.864;2023-04-06T11:33:38;15.56;35.68
74081;SHT31;62438;52.228;6.864;2023-04-06T11:35:39;15.52;35.48
74081;SHT31;62438;52.228;6.864;2023-04-06T11:37:39;15.75;34.93
74081;SHT31;62438;52.228;6.864;2023-04-06T11:39:50;16.05;35.43
74081;SHT31;62438;52.228;6.864;2023-04-06T11:41:59;15.69;35.92
74081;SHT31;62438;52.228;6.864;2023-04-06T11:44:02;15.75;35.79
74081;SHT31;62438;52.228;6.864;2023-04-06T11:46:04;15.61;36.46
74081;SHT31;62438;52.228;6.864;2023-04-06T11:48:04;15.85;35.63
74081;SHT31;62438;52.228;6.864;2023-04-06T11:50:06;16.03;35.53
74081;SHT31;62438;52.228;6.864;2023-04-06T11:52:33;15.08;36.27
74081;SHT31;62438;52.228;6.864;2023-04-06T11:54:35;15.00;37.31
74081;SHT31;62438;52.228;6.864;2023-04-06T11:56:37;15.37;37.26
74081;SHT31;62438;52.228;6.864;2023-04-06T11:58:38;15.23;36.99
74081;SHT31;62438;52.228;6.864;2023-04-06T12:00:38;15.41;37.35
74081;SHT31;62438;52.228;6.864;2023-04-06T12:02:39;15.59;36.98
74081;SHT31;62438;52.228;6.864;2023-04-06T12:04:39;16.06;36.81
74081;SHT31;62438;52.228;6.864;2023-04-06T12:06:40;15.79;36.66
74081;SHT31;62438;52.228;6.864;2023-04-06T12:08:44;15.66;36.71
74081;SHT31;62438;52.228;6.864;2023-04-06T12:10:45;15.03;37.50
74081;SHT31;62438;52.228;6.864;2023-04-06T12:12:45;14.76;38.66
74081;SHT31;62438;52.228;6.864;2023-04-06T12:14:46;14.58;39.37
74081;SHT31;62438;52.228;6.864;2023-04-06T12:16:46;14.45;39.44
74081;SHT31;62438;52.228;6.864;2023-04-06T12:18:47;14.42;39.68
74081;SHT31;62438;52.228;6.864;2023-04-06T12:20:47;14.53;39.05
74081;SHT31;62438;52.228;6.864;2023-04-06T12:22:48;14.33;41.23
74081;SHT31;62438;52.228;6.864;2023-04-06T12:24:48;14.43;40.39
74081;SHT31;62438;52.228;6.864;2023-04-06T12:26:49;14.28;40.19
74081;SHT31;62438;52.228;6.864;2023-04-06T12:28:49;13.97;41.18
74081;SHT31;62438;52.228;6.864;2023-04-06T12:30:50;13.91;40.43
74081;SHT31;62438;52.228;6.864;2023-04-06T12:32:51;14.00;41.67
74081;SHT31;62438;52.228;6.864;2023-04-06T12:34:52;14.21;41.33
74081;SHT31;62438;52.228;6.864;2023-04-06T12:36:52;14.08;41.16
74081;SHT31;62438;52.228;6.864;2023-04-06T12:38:53;14.02;41.00
74081;SHT31;62438;52.228;6.864;2023-04-06T12:40:53;13.85;42.04
74081;SHT31;62438;52.228;6.864;2023-04-06T12:42:54;13.87;42.79
74081;SHT31;62438;52.228;6.864;2023-04-06T12:44:54;13.78;41.73
74081;SHT31;62438;52.228;6.864;2023-04-06T12:46:55;13.91;41.54
74081;SHT31;62438;52.228;6.864;2023-04-06T12:48:56;13.98;42.72
74081;SHT31;62438;52.228;6.864;2023-04-06T12:50:59;13.81;41.62
74081;SHT31;62438;52.228;6.864;2023-04-06T12:53:00;13.77;42.42
74081;SHT31;62438;52.228;6.864;2023-04-06T12:55:02;13.66;42.45
74081;SHT31;62438;52.228;6.864;2023-04-06T12:57:03;13.49;43.26
74081;SHT31;62438;52.228;6.864;2023-04-06T12:59:03;13.46;44.27
74081;SHT31;62438;52.228;6.864;2023-04-06T13:01:06;13.20;44.93
74081;SHT31;62438;52.228;6.864;2023-04-06T13:03:06;13.24;45.42
74081;SHT31;62438;52.228;6.864;2023-04-06T13:05:07;13.24;46.32
74081;SHT31;62438;52.228;6.864;2023-04-06T13:07:07;13.22;46.59
74081;SHT31;62438;52.228;6.864;2023-04-06T13:09:08;13.19;46.86
74081;SHT31;62438;52.228;6.864;2023-04-06T13:11:08;13.26;47.07